createdAt,value
2023-04-18T00:00:56.745Z,101164.41
2023-04-18T00:03:23.317Z,101158.41
2023-04-18T00:05:50.072Z,101167.47
2023-04-18T00:08:16.418Z,101165.09
2023-04-18T00:10:42.724Z,101158.72
2023-04-18T00:13:10.052Z,101159.56
2023-04-18T00:15:36.975Z,101162.63
2023-04-18T00:18:06.377Z,101155.31
2023-04-18T00:20:32.939Z,101160.75
2023-04-18T00:23:00.614Z,101157.72
2023-04-18T00:25:27.105Z,101154.59
2023-04-18T00:27:53.474Z,101155.56
2023-04-18T00:30:19.878Z,101151.19
2023-04-18T00:32:46.240Z,101148.19
2023-04-18T00:35:12.659Z,101138.38
2023-04-18T00:37:38.966Z,101153.28
2023-04-18T00:40:06.072Z,101147.81
2023-04-18T00:42:33.190Z,101151.97
2023-04-18T00:44:59.604Z,101151.84
2023-04-18T00:47:26.045Z,101154.31
2023-04-18T00:49:52.758Z,101151.78
2023-04-18T00:52:19.865Z,101158.63
2023-04-18T00:54:47.183Z,101153.16
2023-04-18T00:57:13.627Z,101146.69
2023-04-18T00:59:40.917Z,101146.69
2023-04-18T01:02:07.339Z,101152.56
2023-04-18T01:04:33.843Z,101148.47
2023-04-18T01:07:02.071Z,101147.03
2023-04-18T01:09:28.625Z,101147.28
2023-04-18T01:11:55.018Z,101149.06
2023-04-18T01:14:21.676Z,101153.28
2023-04-18T01:16:48.447Z,101142.81
2023-04-18T01:19:17.218Z,101141.34
2023-04-18T01:21:43.792Z,101135.25
2023-04-18T01:24:12.485Z,101139.88
2023-04-18T01:26:39.297Z,101134.13
2023-04-18T01:29:05.773Z,101140.63
2023-04-18T01:31:36.442Z,101127.06
2023-04-18T01:34:04.000Z,101137.88
2023-04-18T01:36:31.728Z,101133.28
2023-04-18T01:38:59.042Z,101125.25
2023-04-18T01:41:25.440Z,101127.00
2023-04-18T01:43:51.731Z,101119.53
2023-04-18T01:46:18.059Z,101123.03
2023-04-18T01:48:44.426Z,101123.94
2023-04-18T01:51:10.765Z,101125.75
2023-04-18T01:53:37.086Z,101124.06
2023-04-18T01:56:03.550Z,101121.44
2023-04-18T01:58:29.928Z,101116.00
2023-04-18T02:00:57.755Z,101120.00
2023-04-18T02:03:24.831Z,101117.47
2023-04-18T02:05:51.731Z,101117.53
2023-04-18T02:08:18.309Z,101102.94
2023-04-18T02:10:44.929Z,101123.28
2023-04-18T02:13:11.403Z,101126.09
2023-04-18T02:15:37.786Z,101111.63
2023-04-18T02:18:04.205Z,101116.59
2023-04-18T02:20:31.656Z,101118.63
2023-04-18T02:22:58.802Z,101127.03
2023-04-18T02:25:27.398Z,101121.50
2023-04-18T02:27:54.673Z,101113.25
2023-04-18T02:30:21.349Z,101116.72
2023-04-18T02:32:51.851Z,101126.22
2023-04-18T02:35:19.494Z,101126.03
2023-04-18T02:37:45.879Z,101117.00
2023-04-18T02:40:14.677Z,101108.09
2023-04-18T02:42:41.059Z,101112.09
2023-04-18T02:45:08.579Z,101115.00
2023-04-18T02:47:43.775Z,101115.59
2023-04-18T02:50:17.987Z,101115.38
2023-04-18T02:52:44.360Z,101118.16
2023-04-18T02:55:10.929Z,101120.91
2023-04-18T02:57:37.238Z,101119.81
2023-04-18T03:00:04.562Z,101109.44
2023-04-18T03:02:31.047Z,101118.59
2023-04-18T03:04:57.458Z,101115.13
2023-04-18T03:07:23.900Z,101120.13
2023-04-18T03:09:50.265Z,101114.88
2023-04-18T03:12:16.652Z,101120.31
2023-04-18T03:14:44.388Z,101117.19
2023-04-18T03:17:10.982Z,101125.66
2023-04-18T03:19:39.582Z,101128.75
2023-04-18T03:22:05.949Z,101119.78
2023-04-18T03:24:32.270Z,101129.72
2023-04-18T03:27:00.470Z,101130.06
2023-04-18T03:29:26.858Z,101136.63
2023-04-18T03:31:53.273Z,101131.25
2023-04-18T03:34:19.586Z,101141.13
2023-04-18T03:36:47.263Z,101137.94
2023-04-18T03:39:14.405Z,101134.28
2023-04-18T03:41:40.697Z,101140.31
2023-04-18T03:44:07.022Z,101126.19
2023-04-18T03:46:33.497Z,101134.63
2023-04-18T03:48:59.826Z,101124.44
2023-04-18T03:51:26.212Z,101130.75
2023-04-18T03:53:52.504Z,101132.69
2023-04-18T03:56:18.817Z,101141.47
2023-04-18T03:58:45.117Z,101133.25
2023-04-18T04:01:12.694Z,101140.94
2023-04-18T04:03:39.155Z,101134.91
2023-04-18T04:06:06.414Z,101137.19
2023-04-18T04:08:32.728Z,101138.16
2023-04-18T04:10:59.083Z,101140.78
2023-04-18T04:13:25.424Z,101144.31
2023-04-18T04:15:52.102Z,101149.06
2023-04-18T04:18:18.440Z,101150.63
2023-04-18T04:20:47.571Z,101150.44
2023-04-18T04:23:13.945Z,101149.28
2023-04-18T04:25:40.343Z,101147.63
2023-04-18T04:28:06.812Z,101148.44
2023-04-18T04:30:33.565Z,101152.50
2023-04-18T04:33:01.545Z,101145.97
2023-04-18T04:35:28.286Z,101150.03
2023-04-18T04:37:54.610Z,101148.84
2023-04-18T04:40:22.664Z,101145.13
2023-04-18T04:42:49.095Z,101143.97
2023-04-18T04:45:15.412Z,101152.19
2023-04-18T04:47:41.800Z,101146.44
2023-04-18T04:50:14.432Z,101148.94
2023-04-18T04:52:41.462Z,101146.84
2023-04-18T04:55:08.134Z,101154.25
2023-04-18T04:57:34.506Z,101157.63
2023-04-18T05:00:00.854Z,101152.13
2023-04-18T05:02:27.273Z,101161.59
2023-04-18T05:04:53.604Z,101157.03
2023-04-18T05:07:19.985Z,101159.78
2023-04-18T05:09:46.359Z,101160.56
2023-04-18T05:12:12.717Z,101165.91
2023-04-18T05:14:39.074Z,101165.91
2023-04-18T05:17:05.634Z,101158.97
2023-04-18T05:19:31.978Z,101158.75
2023-04-18T05:21:58.341Z,101158.44
2023-04-18T05:24:24.687Z,101166.84
2023-04-18T05:26:51.415Z,101161.13
2023-04-18T05:29:17.712Z,101162.94
2023-04-18T05:31:44.157Z,101160.44
2023-04-18T05:34:10.444Z,101161.03
2023-04-18T05:36:36.951Z,101169.31
2023-04-18T05:39:03.434Z,101168.50
2023-04-18T05:41:29.802Z,101164.72
2023-04-18T05:44:04.839Z,101169.53
2023-04-18T05:46:32.963Z,101174.56
2023-04-18T05:48:59.398Z,101170.13
2023-04-18T05:51:26.651Z,101176.59
2023-04-18T05:53:52.996Z,101173.28
2023-04-18T05:56:19.404Z,101174.53
2023-04-18T05:58:47.439Z,101177.84
2023-04-18T06:01:18.786Z,101173.06
2023-04-18T06:03:45.413Z,101180.34
2023-04-18T06:06:11.917Z,101181.28
2023-04-18T06:08:39.697Z,101180.81
2023-04-18T06:11:06.201Z,101188.25
2023-04-18T06:13:32.546Z,101190.25
2023-04-18T06:16:00.535Z,101185.44
2023-04-18T06:18:26.901Z,101199.91
2023-04-18T06:20:53.239Z,101201.97
2023-04-18T06:23:19.610Z,101193.28
2023-04-18T06:25:46.181Z,101201.38
2023-04-18T06:28:12.518Z,101205.72
2023-04-18T06:30:38.848Z,101200.53
2023-04-18T06:33:05.296Z,101211.81
2023-04-18T06:35:31.813Z,101222.44
2023-04-18T06:37:58.152Z,101210.31
2023-04-18T06:40:24.531Z,101211.34
2023-04-18T06:42:50.893Z,101218.69
2023-04-18T06:45:17.705Z,101217.91
2023-04-18T06:47:44.470Z,101214.63
2023-04-18T06:50:11.299Z,101217.13
2023-04-18T06:52:40.555Z,101214.22
2023-04-18T06:55:09.036Z,101224.50
2023-04-18T06:57:35.436Z,101221.47
2023-04-18T07:00:01.852Z,101219.03
2023-04-18T07:02:28.462Z,101216.31
2023-04-18T07:04:54.869Z,101231.13
2023-04-18T07:07:21.304Z,101223.69
2023-04-18T07:09:48.880Z,101243.56
2023-04-18T07:12:16.028Z,101238.16
2023-04-18T07:14:42.352Z,101240.88
2023-04-18T07:17:08.736Z,101247.94
2023-04-18T07:19:35.056Z,101252.09
2023-04-18T07:22:01.372Z,101251.16
2023-04-18T07:24:27.693Z,101251.03
2023-04-18T07:26:55.155Z,101256.44
2023-04-18T07:29:21.683Z,101258.94
2023-04-18T07:31:48.532Z,101246.13
2023-04-18T07:34:15.358Z,101248.94
2023-04-18T07:36:42.137Z,101247.63
2023-04-18T07:39:08.624Z,101253.88
2023-04-18T07:41:35.352Z,101246.03
2023-04-18T07:44:02.588Z,101239.91
2023-04-18T07:46:29.138Z,101251.28
2023-04-18T07:48:55.580Z,101245.47
2023-04-18T07:51:22.101Z,101250.31
2023-04-18T07:53:48.460Z,101251.00
2023-04-18T07:56:14.960Z,101251.00
2023-04-18T07:58:41.298Z,101245.97
2023-04-18T08:01:08.953Z,101253.06
2023-04-18T08:03:37.084Z,101255.81
2023-04-18T08:06:03.759Z,101254.72
2023-04-18T08:08:30.115Z,101260.78
2023-04-18T08:10:59.032Z,101261.53
2023-04-18T08:13:25.472Z,101256.81
2023-04-18T08:15:51.931Z,101258.13
2023-04-18T08:18:18.289Z,101264.44
2023-04-18T08:20:44.583Z,101267.75
2023-04-18T08:23:13.061Z,101266.94
2023-04-18T08:25:39.833Z,101264.22
2023-04-18T08:28:06.449Z,101266.38
2023-04-18T08:30:32.862Z,101272.78
2023-04-18T08:33:00.350Z,101273.75
2023-04-18T08:35:26.966Z,101271.66
2023-04-18T08:37:53.301Z,101267.94
2023-04-18T08:40:20.053Z,101276.63
2023-04-18T08:42:46.380Z,101281.09
2023-04-18T08:45:14.085Z,101268.91
2023-04-18T08:47:41.643Z,101275.63
2023-04-18T08:50:09.652Z,101276.38
2023-04-18T08:52:37.759Z,101270.84
2023-04-18T08:55:04.479Z,101270.94
2023-04-18T08:57:31.419Z,101272.63
2023-04-18T09:00:00.661Z,101268.16
2023-04-18T09:02:42.293Z,101270.91
2023-04-18T09:05:14.126Z,101274.91
2023-04-18T09:07:41.401Z,101272.94
2023-04-18T09:10:09.771Z,101265.28
2023-04-18T09:12:49.824Z,101263.53
2023-04-18T09:15:20.097Z,101271.72
2023-04-18T09:17:53.372Z,101268.53
2023-04-18T09:20:35.525Z,101262.28
2023-04-18T09:23:04.236Z,101272.31
2023-04-18T09:25:40.821Z,101266.81
2023-04-18T09:28:32.967Z,101264.75
2023-04-18T09:31:15.105Z,101261.22
2023-04-18T09:33:53.944Z,101260.97
2023-04-18T09:36:22.486Z,101256.28
2023-04-18T09:38:52.519Z,101244.44
2023-04-18T09:41:22.401Z,101242.56
2023-04-18T09:43:49.258Z,101235.22
2023-04-18T09:46:17.483Z,101241.97
2023-04-18T09:48:44.003Z,101241.94
2023-04-18T09:51:14.425Z,101236.91
2023-04-18T09:53:44.464Z,101240.41
2023-04-18T09:56:25.258Z,101228.66
2023-04-18T09:58:56.759Z,101229.59
2023-04-18T10:01:28.303Z,101229.72
2023-04-18T10:03:57.055Z,101233.31
2023-04-18T10:06:27.216Z,101229.69
2023-04-18T10:08:54.161Z,101232.47
2023-04-18T10:11:20.856Z,101228.34
2023-04-18T10:13:48.742Z,101242.63
2023-04-18T10:16:16.795Z,101231.22
2023-04-18T10:18:43.306Z,101247.84
2023-04-18T10:21:09.717Z,101228.16
2023-04-18T10:23:38.387Z,101229.34
2023-04-18T10:26:14.820Z,101223.16
2023-04-18T10:28:57.871Z,101232.25
2023-04-18T10:31:27.973Z,101223.41
2023-04-18T10:36:28.080Z,101209.31
2023-04-18T10:39:03.983Z,101226.09
2023-04-18T10:41:32.438Z,101214.56
2023-04-18T10:44:17.327Z,101216.44
2023-04-18T10:46:52.684Z,101234.28
2023-04-18T10:49:26.307Z,101210.19
2023-04-18T10:51:55.613Z,101209.31
2023-04-18T10:54:57.082Z,101212.78
2023-04-18T10:57:25.340Z,101214.50
2023-04-18T10:59:52.471Z,101204.78
2023-04-18T11:02:30.299Z,101201.09
2023-04-18T11:04:59.045Z,101199.16
2023-04-18T11:07:41.785Z,101192.06
2023-04-18T11:10:09.660Z,101190.28
2023-04-18T11:12:38.122Z,101180.50
2023-04-18T11:15:36.712Z,101177.91
2023-04-18T11:18:04.754Z,101169.03
2023-04-18T11:20:39.068Z,101180.56
2023-04-18T11:23:16.006Z,101185.59
2023-04-18T11:25:44.714Z,101183.88
2023-04-18T11:28:13.873Z,101177.72
2023-04-18T11:30:41.140Z,101178.47
2023-04-18T11:33:11.797Z,101163.50
2023-04-18T11:35:39.640Z,101162.63
2023-04-18T11:38:07.377Z,101162.53
2023-04-18T11:40:34.164Z,101147.50
2023-04-18T11:43:02.299Z,101152.13
2023-04-18T11:45:28.951Z,101147.75
2023-04-18T11:47:58.172Z,101151.31
2023-04-18T11:50:24.874Z,101157.53
2023-04-18T11:52:53.637Z,101156.69
2023-04-18T11:55:24.958Z,101154.91
2023-04-18T11:57:55.990Z,101153.97
2023-04-18T12:00:39.821Z,101154.00
2023-04-18T12:03:11.862Z,101139.72
2023-04-18T12:05:40.070Z,101153.91
2023-04-18T12:08:17.232Z,101142.31
2023-04-18T12:10:48.445Z,101142.41
2023-04-18T12:13:15.067Z,101152.16
2023-04-18T12:15:44.778Z,101143.19
2023-04-18T12:18:13.937Z,101135.19
2023-04-18T12:20:52.576Z,101136.13
2023-04-18T12:23:29.806Z,101139.69
2023-04-18T12:26:01.358Z,101136.13
2023-04-18T12:28:28.235Z,101144.16
2023-04-18T12:30:55.173Z,101144.09
2023-04-18T12:33:21.634Z,101139.66
2023-04-18T12:35:49.532Z,101143.25
2023-04-18T12:38:20.680Z,101140.63
2023-04-18T12:40:47.017Z,101136.13
2023-04-18T12:43:13.325Z,101135.25
2023-04-18T12:45:39.686Z,101138.84
2023-04-18T12:48:06.704Z,101144.06
2023-04-18T12:50:33.153Z,101132.44
2023-04-18T12:53:00.819Z,101128.91
2023-04-18T12:55:28.285Z,101142.28
2023-04-18T12:57:55.385Z,101124.41
2023-04-18T13:00:23.571Z,101149.47
2023-04-18T13:02:50.731Z,101140.59
2023-04-18T13:05:20.270Z,101137.94
2023-04-18T13:07:48.910Z,101136.09
2023-04-18T13:10:20.448Z,101141.41
2023-04-18T13:12:48.360Z,101150.22
2023-04-18T13:15:16.112Z,101169.78
2023-04-18T13:17:43.456Z,101151.91
2023-04-18T13:20:12.351Z,101150.13
2023-04-18T13:22:42.950Z,101162.44
2023-04-18T13:25:10.609Z,101150.75
2023-04-18T13:27:39.627Z,101150.66
2023-04-18T13:30:11.369Z,101149.75
2023-04-18T13:32:39.046Z,101148.78
2023-04-18T13:35:08.143Z,101146.09
2023-04-18T13:37:34.640Z,101162.16
2023-04-18T13:40:01.036Z,101161.47
2023-04-18T13:42:27.408Z,101150.91
2023-04-18T13:44:54.359Z,101148.34
2023-04-18T13:47:20.784Z,101146.59
2023-04-18T13:49:47.104Z,101150.13
2023-04-18T13:52:13.431Z,101142.16
2023-04-18T13:54:41.190Z,101149.38
2023-04-18T13:57:11.446Z,101138.72
2023-04-18T13:59:40.876Z,101147.72
2023-04-18T14:02:08.706Z,101145.94
2023-04-18T14:04:35.680Z,101136.06
2023-04-18T14:07:03.717Z,101136.09
2023-04-18T14:09:30.224Z,101147.63
2023-04-18T14:11:58.146Z,101151.91
2023-04-18T14:14:24.645Z,101148.19
2023-04-18T14:16:51.098Z,101147.97
2023-04-18T14:19:17.890Z,101146.16
2023-04-18T14:21:46.572Z,101147.00
2023-04-18T14:24:13.041Z,101139.88
2023-04-18T14:26:39.576Z,101139.91
2023-04-18T14:29:06.076Z,101137.41
2023-04-18T14:31:32.508Z,101130.31
2023-04-18T14:33:58.840Z,101147.31
2023-04-18T14:36:26.171Z,101132.31
2023-04-18T14:38:52.487Z,101136.84
2023-04-18T14:41:18.873Z,101129.72
2023-04-18T14:43:45.259Z,101135.03
2023-04-18T14:46:13.262Z,101138.63
2023-04-18T14:48:39.644Z,101136.88
2023-04-18T14:51:05.999Z,101126.25
2023-04-18T14:53:32.370Z,101123.59
2023-04-18T14:55:58.701Z,101133.44
2023-04-18T14:58:25.423Z,101129.88
2023-04-18T15:00:51.788Z,101125.44
2023-04-18T15:03:18.302Z,101125.44
2023-04-18T15:05:46.484Z,101121.81
2023-04-18T15:08:14.418Z,101130.72
2023-04-18T15:10:42.200Z,101123.59
2023-04-18T15:13:09.605Z,101124.47
2023-04-18T15:15:36.450Z,101123.56
2023-04-18T15:18:02.896Z,101134.19
2023-04-18T15:20:29.616Z,101130.56
2023-04-18T15:22:56.722Z,101135.97
2023-04-18T15:25:23.418Z,101136.84
2023-04-18T15:27:49.801Z,101129.75
2023-04-18T15:30:16.332Z,101135.06
2023-04-18T15:32:42.795Z,101141.22
2023-04-18T15:35:10.365Z,101129.53
2023-04-18T15:37:36.870Z,101150.00
2023-04-18T15:40:06.594Z,101136.56
2023-04-18T15:42:33.646Z,101135.69
2023-04-18T15:44:59.990Z,101144.63
2023-04-18T15:47:27.014Z,101136.56
2023-04-18T15:49:53.535Z,101130.28
2023-04-18T15:52:19.970Z,101135.66
2023-04-18T15:54:46.412Z,101136.44
2023-04-18T15:57:12.861Z,101133.69
2023-04-18T15:59:39.202Z,101132.75
2023-04-18T16:02:07.045Z,101134.44
2023-04-18T16:04:33.548Z,101135.41
2023-04-18T16:07:00.304Z,101131.03
2023-04-18T16:09:26.935Z,101134.63
2023-04-18T16:11:53.371Z,101131.97
2023-04-18T16:14:19.707Z,101129.41
2023-04-18T16:16:46.152Z,101140.19
2023-04-18T16:19:12.455Z,101143.69
2023-04-18T16:21:38.830Z,101139.09
2023-04-18T16:24:05.602Z,101131.06
2023-04-18T16:26:32.029Z,101139.16
2023-04-18T16:28:58.356Z,101141.91
2023-04-18T16:31:24.861Z,101136.63
2023-04-18T16:33:52.579Z,101140.13
2023-04-18T16:36:19.385Z,101141.78
2023-04-18T16:38:45.928Z,101146.09
2023-04-18T16:41:12.222Z,101153.19
2023-04-18T16:43:38.624Z,101150.50
2023-04-18T16:46:05.580Z,101165.50
2023-04-18T16:48:32.065Z,101148.56
2023-04-18T16:50:58.437Z,101144.06
2023-04-18T16:53:24.869Z,101156.47
2023-04-18T16:55:52.136Z,101154.56
2023-04-18T16:58:19.116Z,101159.88
2023-04-18T17:00:45.493Z,101157.91
2023-04-18T17:03:11.887Z,101171.09
2023-04-18T17:05:39.259Z,101166.63
2023-04-18T17:08:06.778Z,101194.09
2023-04-18T17:10:33.815Z,101173.66
2023-04-18T17:13:02.623Z,101168.38
2023-04-18T17:15:29.176Z,101178.03
2023-04-18T17:17:56.348Z,101179.69
2023-04-18T17:20:23.581Z,101187.66
2023-04-18T17:22:49.929Z,101184.91
2023-04-18T17:25:16.690Z,101189.28
2023-04-18T17:27:43.094Z,101196.38
2023-04-18T17:30:10.139Z,101194.47
2023-04-18T17:32:36.835Z,101192.63
2023-04-18T17:35:06.109Z,101184.63
2023-04-18T17:37:32.483Z,101188.00
2023-04-18T17:40:00.267Z,101181.72
2023-04-18T17:42:26.646Z,101190.44
2023-04-18T17:44:52.970Z,101185.09
2023-04-18T17:47:19.270Z,101200.09
2023-04-18T17:49:45.926Z,101202.69
2023-04-18T17:52:12.205Z,101195.53
2023-04-18T17:54:38.600Z,101197.22
2023-04-18T17:57:04.934Z,101204.94
2023-04-18T17:59:37.424Z,101207.50
2023-04-18T18:02:05.014Z,101220.69
2023-04-18T18:04:31.716Z,101219.72
2023-04-18T18:06:58.619Z,101221.34
2023-04-18T18:09:25.041Z,101222.19
2023-04-18T18:11:52.413Z,101213.19
2023-04-18T18:14:20.249Z,101244.19
2023-04-18T18:16:46.877Z,101234.31
2023-04-18T18:19:14.888Z,101238.69
2023-04-18T18:21:41.374Z,101225.28
2023-04-18T18:24:07.915Z,101220.84
2023-04-18T18:26:36.101Z,101237.53
2023-04-18T18:29:09.025Z,101239.19
2023-04-18T18:31:36.108Z,101245.38
2023-04-18T18:34:02.746Z,101237.16
2023-04-18T18:36:29.182Z,101240.72
2023-04-18T18:38:57.795Z,101262.00
2023-04-18T18:41:24.415Z,101254.88
2023-04-18T18:43:51.230Z,101254.81
2023-04-18T18:46:18.021Z,101259.13
2023-04-18T18:48:44.469Z,101264.41
2023-04-18T18:51:11.451Z,101261.63
2023-04-18T18:53:40.143Z,101262.44
2023-04-18T18:56:08.528Z,101266.09
2023-04-18T18:58:35.638Z,101270.44
2023-04-18T19:01:03.237Z,101279.22
2023-04-18T19:03:29.799Z,101292.50
2023-04-18T19:05:56.574Z,101279.06
2023-04-18T19:08:23.005Z,101294.09
2023-04-18T19:10:50.447Z,101293.13
2023-04-18T19:13:16.831Z,101294.94
2023-04-18T19:15:43.216Z,101294.00
2023-04-18T19:18:09.686Z,101289.56
2023-04-18T19:20:38.698Z,101295.78
2023-04-18T19:23:05.134Z,101300.97
2023-04-18T19:25:31.534Z,101299.19
2023-04-18T19:27:57.825Z,101292.91
2023-04-18T19:30:24.957Z,101305.31
2023-04-18T19:32:51.561Z,101308.75
2023-04-18T19:35:17.929Z,101300.72
2023-04-18T19:37:44.276Z,101302.44
2023-04-18T19:40:11.196Z,101301.53
2023-04-18T19:42:37.543Z,101302.38
2023-04-18T19:45:05.302Z,101319.16
2023-04-18T19:47:33.701Z,101305.91
2023-04-18T19:50:01.020Z,101302.31
2023-04-18T19:52:27.344Z,101292.59
2023-04-18T19:54:53.940Z,101303.16
2023-04-18T19:57:20.240Z,101302.28
2023-04-18T19:59:46.604Z,101308.44
2023-04-18T20:02:12.931Z,101312.78
2023-04-18T20:04:42.136Z,101305.69
2023-04-18T20:07:08.655Z,101314.56
2023-04-18T20:09:35.005Z,101314.50
2023-04-18T20:12:01.811Z,101316.34
2023-04-18T20:14:29.172Z,101308.34
2023-04-18T20:16:56.521Z,101317.16
2023-04-18T20:19:25.720Z,101315.41
2023-04-18T20:21:52.524Z,101320.75
2023-04-18T20:24:20.937Z,101317.03
2023-04-18T20:26:47.680Z,101317.00
2023-04-18T20:29:14.197Z,101317.03
2023-04-18T20:31:42.273Z,101312.53
2023-04-18T20:34:09.810Z,101320.50
2023-04-18T20:36:41.268Z,101315.13
2023-04-18T20:39:12.513Z,101317.78
2023-04-18T20:41:46.335Z,101316.88
2023-04-18T20:44:13.691Z,101318.63
2023-04-18T20:46:40.879Z,101324.91
2023-04-18T20:49:08.145Z,101337.22
2023-04-18T20:51:35.686Z,101322.22
2023-04-18T20:54:02.023Z,101324.88
2023-04-18T20:56:28.449Z,101319.50
2023-04-18T20:58:54.911Z,101321.25
2023-04-18T21:01:22.434Z,101330.94
2023-04-18T21:03:49.245Z,101324.66
2023-04-18T21:06:15.821Z,101323.84
2023-04-18T21:08:42.109Z,101325.41
2023-04-18T21:11:08.490Z,101328.16
2023-04-18T21:13:34.950Z,101323.72
2023-04-18T21:16:03.394Z,101319.28
2023-04-18T21:18:30.054Z,101328.97
2023-04-18T21:20:56.361Z,101324.63
2023-04-18T21:23:25.604Z,101328.13
2023-04-18T21:25:51.889Z,101322.72
2023-04-18T21:28:21.440Z,101319.22
2023-04-18T21:30:47.953Z,101328.03
2023-04-18T21:33:14.745Z,101320.88
2023-04-18T21:35:41.107Z,101318.16
2023-04-18T21:38:07.428Z,101327.88
2023-04-18T21:40:33.780Z,101320.84
2023-04-18T21:43:00.311Z,101320.75
2023-04-18T21:45:26.765Z,101327.84
2023-04-18T21:47:53.237Z,101318.88
2023-04-18T21:50:20.232Z,101324.19
2023-04-18T21:52:46.611Z,101329.59
2023-04-18T21:55:13.056Z,101315.41
2023-04-18T21:57:39.358Z,101325.03
2023-04-18T22:00:09.270Z,101324.00
2023-04-18T22:02:36.752Z,101326.69
2023-04-18T22:05:03.240Z,101320.59
2023-04-18T22:07:30.881Z,101326.63
2023-04-18T22:09:59.558Z,101323.06
2023-04-18T22:12:26.279Z,101321.22
2023-04-18T22:14:52.823Z,101328.19
2023-04-18T22:17:19.239Z,101329.09
2023-04-18T22:19:47.098Z,101322.84
2023-04-18T22:22:13.435Z,101323.72
2023-04-18T22:24:39.732Z,101315.88
2023-04-18T22:27:06.060Z,101317.44
2023-04-18T22:29:32.429Z,101321.84
2023-04-18T22:31:58.776Z,101313.84
2023-04-18T22:34:25.106Z,101311.09
2023-04-18T22:36:51.477Z,101320.78
2023-04-18T22:39:17.817Z,101319.81
2023-04-18T22:41:44.143Z,101320.56
2023-04-18T22:44:10.520Z,101317.81
2023-04-18T22:46:38.242Z,101316.06
2023-04-18T22:49:05.372Z,101324.09
2023-04-18T22:51:31.811Z,101317.09
2023-04-18T22:53:58.160Z,101320.56
2023-04-18T22:56:24.469Z,101321.44
2023-04-18T22:58:50.871Z,101321.38
2023-04-18T23:01:17.391Z,101317.78
2023-04-18T23:03:43.962Z,101324.06
2023-04-18T23:06:10.945Z,101315.09
2023-04-18T23:08:39.370Z,101317.59
2023-04-18T23:11:05.774Z,101313.72
2023-04-18T23:13:32.141Z,101313.66
2023-04-18T23:15:58.684Z,101314.34
2023-04-18T23:18:25.016Z,101313.50
2023-04-18T23:20:51.295Z,101316.16
2023-04-18T23:23:17.699Z,101310.78
2023-04-18T23:25:44.114Z,101310.81
2023-04-18T23:28:10.598Z,101308.22
2023-04-18T23:30:37.154Z,101313.63
2023-04-18T23:33:03.589Z,101313.66
2023-04-18T23:35:29.959Z,101321.53
2023-04-18T23:37:57.040Z,101323.19
2023-04-18T23:40:23.508Z,101314.28
2023-04-18T23:42:49.824Z,101314.97
2023-04-18T23:45:16.492Z,101311.38
2023-04-18T23:47:42.865Z,101301.50
2023-04-18T23:50:09.691Z,101297.22
2023-04-18T23:52:38.057Z,101302.53
2023-04-18T23:55:04.700Z,101300.88
2023-04-18T23:57:31.132Z,101293.84
2023-04-18T23:59:57.440Z,101305.34
